createdAt,value
2023-02-07T00:00:57.596Z,4.57
2023-02-07T00:06:12.133Z,9.60
2023-02-07T00:11:17.534Z,4.07
2023-02-07T00:16:21.696Z,5.03
2023-02-07T00:21:26.082Z,10.05
2023-02-07T00:26:29.396Z,10.27
2023-02-07T00:31:34.637Z,12.13
2023-02-07T00:36:40.224Z,8.02
2023-02-07T00:41:44.232Z,9.05
2023-02-07T00:46:47.417Z,7.43
2023-02-07T00:51:50.556Z,11.23
2023-02-07T00:56:53.566Z,12.90
2023-02-07T01:02:00.028Z,8.30
2023-02-07T01:07:03.382Z,4.25
2023-02-07T01:12:06.558Z,9.98
2023-02-07T01:17:09.607Z,14.10
2023-02-07T01:22:12.650Z,5.47
2023-02-07T01:27:15.779Z,7.82
2023-02-07T01:32:18.856Z,11.52
2023-02-07T01:37:21.913Z,4.65
2023-02-07T01:42:27.458Z,6.25
2023-02-07T01:47:32.232Z,4.43
2023-02-07T01:52:40.012Z,4.68
2023-02-07T01:57:45.437Z,4.05
2023-02-07T02:02:48.514Z,9.52
2023-02-07T02:07:52.798Z,6.13
2023-02-07T02:13:15.081Z,6.72
2023-02-07T02:18:23.880Z,5.75
2023-02-07T02:23:57.853Z,10.77
2023-02-07T02:29:18.989Z,7.15
2023-02-07T02:34:33.104Z,4.03
2023-02-07T02:39:54.509Z,6.95
2023-02-07T02:45:37.183Z,6.43
2023-02-07T02:50:45.696Z,5.68
2023-02-07T02:56:06.196Z,8.77
2023-02-07T03:01:20.356Z,4.75
2023-02-07T03:06:43.722Z,2.63
2023-02-07T03:12:05.080Z,15.80
2023-02-07T03:17:34.323Z,11.27
2023-02-07T03:22:42.187Z,6.65
2023-02-07T03:27:47.233Z,5.05
2023-02-07T03:32:56.831Z,3.22
2023-02-07T03:38:02.465Z,6.78
2023-02-07T03:43:08.417Z,6.22
2023-02-07T03:48:11.561Z,4.40
2023-02-07T03:53:14.686Z,7.15
2023-02-07T03:58:17.801Z,8.63
2023-02-07T04:03:20.846Z,5.70
2023-02-07T04:08:24.190Z,14.75
2023-02-07T04:13:27.761Z,6.65
2023-02-07T04:18:31.247Z,6.57
2023-02-07T04:23:35.410Z,13.93
2023-02-07T04:28:38.580Z,9.48
2023-02-07T04:33:41.601Z,7.72
2023-02-07T04:38:45.111Z,2.78
2023-02-07T04:43:48.122Z,6.53
2023-02-07T04:48:51.328Z,7.28
2023-02-07T04:53:56.894Z,5.75
2023-02-07T04:58:59.880Z,4.20
2023-02-07T05:04:03.075Z,3.70
2023-02-07T05:09:06.498Z,3.42
2023-02-07T05:14:09.628Z,9.48
2023-02-07T05:19:13.089Z,4.20
2023-02-07T05:24:16.212Z,5.18
2023-02-07T05:29:19.459Z,3.80
2023-02-07T05:34:23.868Z,5.75
2023-02-07T05:39:27.005Z,2.80
2023-02-07T05:44:30.148Z,5.07
2023-02-07T05:49:33.119Z,4.07
2023-02-07T05:54:36.269Z,1.10
2023-02-07T05:59:39.309Z,5.03
2023-02-07T06:04:42.389Z,5.53
2023-02-07T06:09:45.418Z,6.70
2023-02-07T06:14:48.485Z,4.20
2023-02-07T06:19:53.627Z,8.48
2023-02-07T06:24:56.819Z,5.03
2023-02-07T06:29:59.926Z,3.95
2023-02-07T06:35:03.268Z,5.15
2023-02-07T06:40:06.845Z,7.03
2023-02-07T06:45:10.384Z,3.08
2023-02-07T06:50:13.598Z,11.20
2023-02-07T06:55:16.782Z,5.93
2023-02-07T07:00:21.092Z,5.35
2023-02-07T07:05:24.372Z,9.23
2023-02-07T07:10:27.771Z,4.38
2023-02-07T07:15:30.909Z,5.25
2023-02-07T07:20:34.007Z,7.80
2023-02-07T07:25:37.378Z,4.72
2023-02-07T07:30:40.796Z,3.42
2023-02-07T07:35:43.922Z,3.72
2023-02-07T07:40:46.921Z,3.13
2023-02-07T07:45:57.777Z,7.22
2023-02-07T07:51:00.978Z,4.78
2023-02-07T07:56:04.469Z,16.58
2023-02-07T08:01:07.676Z,7.22
2023-02-07T08:06:11.117Z,7.55
2023-02-07T08:11:14.455Z,3.75
2023-02-07T08:16:19.214Z,5.13
2023-02-07T08:21:22.746Z,18.23
2023-02-07T08:26:26.119Z,4.60
2023-02-07T08:31:29.318Z,1.90
2023-02-07T08:36:32.441Z,3.05
2023-02-07T08:41:35.748Z,3.45
2023-02-07T08:46:38.825Z,3.20
2023-02-07T08:51:43.039Z,8.07
2023-02-07T08:56:46.152Z,3.55
2023-02-07T09:01:49.241Z,2.67
2023-02-07T09:06:52.390Z,3.80
2023-02-07T09:11:55.506Z,5.68
2023-02-07T09:16:58.619Z,1.65
2023-02-07T09:22:01.692Z,3.85
2023-02-07T09:27:04.726Z,1.17
2023-02-07T09:32:07.891Z,5.60
2023-02-07T09:37:11.651Z,5.97
2023-02-07T09:42:34.258Z,6.00
2023-02-07T09:47:41.872Z,4.30
2023-02-07T09:52:59.319Z,3.78
2023-02-07T09:58:42.872Z,12.18
2023-02-07T10:04:18.170Z,2.95
2023-02-07T10:09:33.946Z,5.63
2023-02-07T10:15:02.031Z,4.13
2023-02-07T10:20:50.718Z,3.40
2023-02-07T10:26:02.654Z,3.60
2023-02-07T10:31:14.065Z,4.78
2023-02-07T10:36:18.864Z,3.42
2023-02-07T10:41:34.784Z,8.55
2023-02-07T10:46:41.117Z,3.63
2023-02-07T10:51:46.178Z,1.17
2023-02-07T10:56:52.835Z,5.05
2023-02-07T11:01:57.449Z,2.85
2023-02-07T11:07:02.785Z,1.45
2023-02-07T11:12:23.640Z,2.42
2023-02-07T11:17:26.941Z,1.65
2023-02-07T11:22:30.113Z,2.72
2023-02-07T11:27:42.774Z,4.10
2023-02-07T11:33:03.163Z,2.55
2023-02-07T11:38:15.882Z,5.88
2023-02-07T11:43:23.226Z,2.88
2023-02-07T11:53:37.654Z,2.53
2023-02-07T11:58:47.745Z,5.78
2023-02-07T12:04:01.211Z,2.30
2023-02-07T12:09:10.535Z,4.53
2023-02-07T12:14:27.779Z,1.75
2023-02-07T12:19:36.258Z,3.03
2023-02-07T12:24:57.081Z,3.78
2023-02-07T12:30:18.253Z,3.50
2023-02-07T12:35:39.264Z,6.65
2023-02-07T12:40:59.961Z,5.78
2023-02-07T12:46:23.198Z,8.18
2023-02-07T12:51:44.209Z,7.88
2023-02-07T12:56:57.606Z,6.20
2023-02-07T13:02:19.188Z,6.13
2023-02-07T13:07:37.165Z,4.38
2023-02-07T13:12:58.759Z,2.70
2023-02-07T13:18:12.089Z,8.40
2023-02-07T13:23:26.773Z,5.70
2023-02-07T13:28:46.099Z,7.50
2023-02-07T13:33:51.057Z,15.38
2023-02-07T13:39:14.595Z,8.00
2023-02-07T13:44:35.184Z,5.32
2023-02-07T13:50:21.558Z,9.00
2023-02-07T13:55:32.719Z,12.10
2023-02-07T14:00:56.433Z,7.30
2023-02-07T14:06:26.787Z,12.10
2023-02-07T14:11:44.397Z,16.98
2023-02-07T14:16:58.656Z,6.88
2023-02-07T14:22:28.046Z,7.70
2023-02-07T14:27:35.256Z,11.18
2023-02-07T14:32:40.955Z,14.55
2023-02-07T14:37:54.455Z,16.15
2023-02-07T14:43:35.243Z,16.60
2023-02-07T14:48:49.132Z,7.82
2023-02-07T14:54:13.972Z,18.13
2023-02-07T14:59:29.170Z,10.95
2023-02-07T15:04:36.430Z,10.32
2023-02-07T15:09:39.479Z,9.18
2023-02-07T15:14:42.591Z,16.40
2023-02-07T15:19:45.650Z,17.90
2023-02-07T15:24:51.861Z,14.40
2023-02-07T15:30:01.240Z,17.63
2023-02-07T15:35:18.912Z,10.32
2023-02-07T15:40:26.663Z,16.40
2023-02-07T15:45:32.615Z,10.85
2023-02-07T15:50:37.399Z,8.43
2023-02-07T15:55:46.271Z,14.15
2023-02-07T16:00:53.565Z,14.48
2023-02-07T16:06:09.896Z,9.13
2023-02-07T16:11:38.108Z,11.65
2023-02-07T16:16:52.654Z,13.32
2023-02-07T16:22:12.569Z,15.65
2023-02-07T16:27:21.107Z,15.15
2023-02-07T16:32:28.171Z,9.82
2023-02-07T16:37:31.149Z,10.40
2023-02-07T16:42:34.232Z,13.55
2023-02-07T16:47:37.288Z,18.83
2023-02-07T16:52:40.309Z,12.48
2023-02-07T16:57:44.871Z,12.32
2023-02-07T17:02:50.640Z,15.55
2023-02-07T17:07:53.699Z,16.83
2023-02-07T17:12:57.051Z,9.80
2023-02-07T17:18:00.203Z,14.82
2023-02-07T17:23:03.300Z,18.80
2023-02-07T17:28:06.494Z,21.33
2023-02-07T17:33:10.950Z,14.10
2023-02-07T17:38:14.066Z,18.63
2023-02-07T17:43:17.118Z,9.63
2023-02-07T17:48:20.125Z,13.50
2023-02-07T17:53:23.571Z,16.17
2023-02-07T17:58:26.694Z,6.30
2023-02-07T18:03:29.704Z,10.65
2023-02-07T18:08:32.729Z,12.18
2023-02-07T18:13:35.842Z,13.57
2023-02-07T18:18:40.230Z,16.10
2023-02-07T18:23:43.398Z,16.30
2023-02-07T18:28:46.973Z,14.10
2023-02-07T18:33:51.452Z,14.75
2023-02-07T18:38:54.520Z,24.52
2023-02-07T18:43:57.552Z,13.73
2023-02-07T18:49:00.759Z,17.80
2023-02-07T18:54:03.923Z,21.13
2023-02-07T18:59:07.202Z,15.13
2023-02-07T19:04:10.224Z,20.10
2023-02-07T19:09:14.133Z,27.80
2023-02-07T19:14:26.786Z,14.60
2023-02-07T19:19:31.383Z,17.35
2023-02-07T19:24:34.391Z,16.05
2023-02-07T19:29:37.538Z,19.20
2023-02-07T19:34:40.572Z,19.23
2023-02-07T19:39:46.433Z,22.67
2023-02-07T19:44:49.971Z,22.05
2023-02-07T19:49:53.078Z,21.92
2023-02-07T19:54:56.790Z,31.90
2023-02-07T19:59:59.860Z,11.65
2023-02-07T20:05:02.855Z,26.23
2023-02-07T20:10:07.218Z,9.85
2023-02-07T20:15:11.094Z,16.63
2023-02-07T20:20:15.406Z,11.63
2023-02-07T20:25:18.454Z,20.38
2023-02-07T20:30:21.544Z,15.85
2023-02-07T20:35:24.875Z,15.93
2023-02-07T20:40:27.958Z,20.25
2023-02-07T20:45:31.011Z,21.60
2023-02-07T20:50:35.231Z,13.88
2023-02-07T20:55:38.223Z,18.23
2023-02-07T21:00:41.618Z,24.33
2023-02-07T21:05:44.840Z,12.90
2023-02-07T21:10:48.000Z,11.90
2023-02-07T21:16:02.528Z,20.90
2023-02-07T21:21:08.178Z,16.58
2023-02-07T21:26:13.941Z,21.02
2023-02-07T21:31:20.252Z,17.35
2023-02-07T21:36:29.152Z,6.03
2023-02-07T21:41:32.376Z,10.18
2023-02-07T21:46:39.692Z,23.55
2023-02-07T21:51:45.588Z,12.35
2023-02-07T21:56:50.367Z,17.90
2023-02-07T22:01:54.570Z,27.48
2023-02-07T22:06:57.840Z,17.67
2023-02-07T22:12:00.848Z,30.60
2023-02-07T22:17:03.894Z,18.42
2023-02-07T22:22:06.880Z,17.45
2023-02-07T22:27:09.855Z,18.35
2023-02-07T22:32:12.965Z,9.00
2023-02-07T22:37:15.932Z,17.05
2023-02-07T22:42:19.016Z,16.98
2023-02-07T22:47:22.084Z,12.05
2023-02-07T22:52:25.114Z,12.68
2023-02-07T22:57:28.247Z,14.68
2023-02-07T23:02:31.332Z,19.77
2023-02-07T23:07:35.268Z,27.10
2023-02-07T23:12:39.571Z,15.30
2023-02-07T23:17:42.593Z,17.60
2023-02-07T23:22:45.706Z,19.30
2023-02-07T23:27:48.905Z,19.60
2023-02-07T23:32:51.938Z,8.60
2023-02-07T23:37:54.982Z,15.27
2023-02-07T23:42:58.039Z,23.67
2023-02-07T23:48:02.654Z,16.83
2023-02-07T23:53:05.770Z,12.57
2023-02-07T23:58:08.883Z,15.80
